Weather search by city/station or by Location Indicator (LI)

Please do one of the following:
a) Search the weather station by station, city or country name and click Search button
b) Enter the four-character Location Indicator (i.e. EFHK = Helsinki) and click Submit button

a) Search the station:    Help

b) Location Indicator:  

The ICAO Location Indicator code is explained here.

METAR = EFHK 201450Z 33005KT 9000 -SG FEW006 BKN010 BKN075 M04/M05 Q1009 BECMG SCT010

STATIONEFHK
NAMEHelsinki/Vantaa Arpt, --, FI
OBSERVEDSat Jan 20 16:50 (20.01.2018 14:50 UTC), 8 min ago
TEMPERATURE-4.0°C ( 25°F)
WINDCHILL-7.9 °C (18 °F)
WINDNNW (330 degrees) at 6 MPH (5 knots; 2.6 m/s)
HUMIDITY93%
PRESSURE1008.8 hPa
CONDITIONSlight snow grains
Forecast